KAKQ/AKQ METAR and TAF weather

Enter ICAO airport designator
Station Type Date Time Source
KAKQ METAR 2018/01/16 08:54 UTC NOAA

KAKQ 160854Z AUTO 00000KT 1 1/2SM BR OVC002 M02/M02 A3045 RMK AO2 SLP314 T10171017 58000


Station Type Date Time Source
KAKQ Decoded METAR 2018/01/16 08:54 UTC NOAA

WAKEFIELD MUNICIPAL AIRPOR, VA, United States (KAKQ) 36-59N 077-00W 33M
Jan 16, 2018 - 03:54 AM EST / 2018.01.16 0854 UTC
Wind: Calm:0
Visibility: 1 1/2 mile(s):0
Sky conditions: overcast
Weather: mist
Temperature: 28.9 F (-1.7 C)
Dew Point: 28.9 F (-1.7 C)
Relative Humidity: 100%
Pressure (altimeter): 30.45 in. Hg (1031 hPa)
Pressure tendency: 0.00 inches (0.0 hPa) lower than three hours ago
ob: KAKQ 160854Z AUTO 00000KT 1 1/2SM BR OVC002 M02/M02 A3045 RMK AO2 SLP314 T10171017 58000
cycle: 9

Station Type Date Time Source
KAKQ TAF UTC NOAA

Error!


Example: see airport list